sensor_id;sensor_type;location;lat;lon;timestamp;P1;durP1;ratioP1;P2;durP2;ratioP2
73512;SDS011;61754;55.008;73.348;2022-10-22T00:00:27;12.38;;;4.47;;
73512;SDS011;61754;55.008;73.348;2022-10-22T00:02:52;10.90;;;4.38;;
73512;SDS011;61754;55.008;73.348;2022-10-22T00:05:18;20.30;;;5.20;;
73512;SDS011;61754;55.008;73.348;2022-10-22T00:07:50;13.60;;;3.95;;
73512;SDS011;61754;55.008;73.348;2022-10-22T00:10:22;16.35;;;5.10;;
73512;SDS011;61754;55.008;73.348;2022-10-22T00:12:56;26.88;;;6.15;;
73512;SDS011;61754;55.008;73.348;2022-10-22T00:15:22;21.20;;;4.68;;
73512;SDS011;61754;55.008;73.348;2022-10-22T00:17:48;23.55;;;4.45;;
73512;SDS011;61754;55.008;73.348;2022-10-22T00:20:14;13.40;;;4.78;;
73512;SDS011;61754;55.008;73.348;2022-10-22T00:22:40;15.10;;;5.63;;
73512;SDS011;61754;55.008;73.348;2022-10-22T00:25:06;13.95;;;4.78;;
73512;SDS011;61754;55.008;73.348;2022-10-22T00:27:32;24.35;;;6.30;;
73512;SDS011;61754;55.008;73.348;2022-10-22T00:29:58;11.85;;;5.70;;
73512;SDS011;61754;55.008;73.348;2022-10-22T00:32:28;11.27;;;4.75;;
73512;SDS011;61754;55.008;73.348;2022-10-22T00:34:54;19.70;;;5.22;;
73512;SDS011;61754;55.008;73.348;2022-10-22T00:37:20;9.70;;;4.88;;
73512;SDS011;61754;55.008;73.348;2022-10-22T00:39:46;23.83;;;5.50;;
73512;SDS011;61754;55.008;73.348;2022-10-22T00:42:15;14.60;;;4.90;;
73512;SDS011;61754;55.008;73.348;2022-10-22T00:50:03;20.00;;;5.22;;
73512;SDS011;61754;55.008;73.348;2022-10-22T00:52:38;28.35;;;5.60;;
73512;SDS011;61754;55.008;73.348;2022-10-22T00:55:05;30.15;;;6.95;;
73512;SDS011;61754;55.008;73.348;2022-10-22T00:57:41;30.42;;;6.40;;
73512;SDS011;61754;55.008;73.348;2022-10-22T01:00:18;22.38;;;5.40;;
73512;SDS011;61754;55.008;73.348;2022-10-22T01:02:45;19.98;;;5.18;;
73512;SDS011;61754;55.008;73.348;2022-10-22T01:05:11;18.88;;;5.15;;
73512;SDS011;61754;55.008;73.348;2022-10-22T01:07:42;16.35;;;5.32;;
73512;SDS011;61754;55.008;73.348;2022-10-22T01:15:47;22.15;;;5.93;;
73512;SDS011;61754;55.008;73.348;2022-10-22T01:18:28;20.23;;;5.32;;
73512;SDS011;61754;55.008;73.348;2022-10-22T01:20:59;27.67;;;5.95;;
73512;SDS011;61754;55.008;73.348;2022-10-22T01:31:10;15.48;;;6.25;;
73512;SDS011;61754;55.008;73.348;2022-10-22T01:33:38;27.25;;;5.75;;
73512;SDS011;61754;55.008;73.348;2022-10-22T01:36:10;33.22;;;6.68;;
73512;SDS011;61754;55.008;73.348;2022-10-22T01:38:36;38.60;;;7.75;;
73512;SDS011;61754;55.008;73.348;2022-10-22T01:41:02;31.10;;;7.00;;
73512;SDS011;61754;55.008;73.348;2022-10-22T01:43:29;23.98;;;7.38;;
73512;SDS011;61754;55.008;73.348;2022-10-22T01:46:05;21.92;;;8.50;;
73512;SDS011;61754;55.008;73.348;2022-10-22T01:53:50;28.02;;;8.48;;
73512;SDS011;61754;55.008;73.348;2022-10-22T01:56:27;49.55;;;9.02;;
73512;SDS011;61754;55.008;73.348;2022-10-22T01:59:06;24.40;;;8.38;;
73512;SDS011;61754;55.008;73.348;2022-10-22T02:04:17;31.95;;;10.35;;
73512;SDS011;61754;55.008;73.348;2022-10-22T02:06:45;34.72;;;9.13;;
73512;SDS011;61754;55.008;73.348;2022-10-22T02:09:13;27.60;;;9.18;;
73512;SDS011;61754;55.008;73.348;2022-10-22T02:11:41;29.92;;;9.73;;
73512;SDS011;61754;55.008;73.348;2022-10-22T02:14:08;31.90;;;9.13;;
73512;SDS011;61754;55.008;73.348;2022-10-22T02:16:39;35.08;;;8.93;;
73512;SDS011;61754;55.008;73.348;2022-10-22T02:19:16;26.38;;;8.18;;
73512;SDS011;61754;55.008;73.348;2022-10-22T02:21:44;9.27;;;5.75;;
73512;SDS011;61754;55.008;73.348;2022-10-22T02:24:18;10.10;;;5.28;;
73512;SDS011;61754;55.008;73.348;2022-10-22T02:26:48;10.10;;;6.07;;
73512;SDS011;61754;55.008;73.348;2022-10-22T02:29:18;14.30;;;4.82;;
73512;SDS011;61754;55.008;73.348;2022-10-22T02:31:46;8.65;;;4.05;;
73512;SDS011;61754;55.008;73.348;2022-10-22T02:34:19;10.43;;;4.40;;
73512;SDS011;61754;55.008;73.348;2022-10-22T02:36:46;11.90;;;4.65;;
73512;SDS011;61754;55.008;73.348;2022-10-22T02:39:13;7.30;;;4.85;;
73512;SDS011;61754;55.008;73.348;2022-10-22T02:41:39;7.25;;;5.28;;
73512;SDS011;61754;55.008;73.348;2022-10-22T02:44:09;10.20;;;5.50;;
73512;SDS011;61754;55.008;73.348;2022-10-22T02:46:36;6.55;;;5.22;;
73512;SDS011;61754;55.008;73.348;2022-10-22T02:49:02;13.38;;;6.28;;
73512;SDS011;61754;55.008;73.348;2022-10-22T02:51:28;9.93;;;5.55;;
73512;SDS011;61754;55.008;73.348;2022-10-22T02:53:54;9.65;;;6.10;;
73512;SDS011;61754;55.008;73.348;2022-10-22T02:56:20;7.13;;;4.72;;
73512;SDS011;61754;55.008;73.348;2022-10-22T02:58:55;9.68;;;5.78;;
73512;SDS011;61754;55.008;73.348;2022-10-22T03:01:21;28.35;;;6.00;;
73512;SDS011;61754;55.008;73.348;2022-10-22T03:03:54;15.98;;;5.65;;
73512;SDS011;61754;55.008;73.348;2022-10-22T03:06:23;12.27;;;6.57;;
73512;SDS011;61754;55.008;73.348;2022-10-22T03:08:49;16.05;;;6.28;;
73512;SDS011;61754;55.008;73.348;2022-10-22T03:11:15;12.32;;;6.32;;
73512;SDS011;61754;55.008;73.348;2022-10-22T03:13:41;18.48;;;6.45;;
73512;SDS011;61754;55.008;73.348;2022-10-22T03:16:07;9.15;;;5.40;;
73512;SDS011;61754;55.008;73.348;2022-10-22T03:18:33;16.40;;;6.15;;
73512;SDS011;61754;55.008;73.348;2022-10-22T03:21:25;9.43;;;5.40;;
73512;SDS011;61754;55.008;73.348;2022-10-22T03:23:54;14.50;;;6.22;;
73512;SDS011;61754;55.008;73.348;2022-10-22T03:26:20;11.00;;;5.80;;
73512;SDS011;61754;55.008;73.348;2022-10-22T03:28:46;16.52;;;6.10;;
73512;SDS011;61754;55.008;73.348;2022-10-22T03:31:13;11.27;;;6.32;;
73512;SDS011;61754;55.008;73.348;2022-10-22T03:33:42;12.48;;;6.13;;
73512;SDS011;61754;55.008;73.348;2022-10-22T03:36:08;10.10;;;6.15;;
73512;SDS011;61754;55.008;73.348;2022-10-22T03:38:36;10.88;;;6.22;;
73512;SDS011;61754;55.008;73.348;2022-10-22T03:41:12;16.27;;;6.75;;
73512;SDS011;61754;55.008;73.348;2022-10-22T03:43:39;15.80;;;7.07;;
73512;SDS011;61754;55.008;73.348;2022-10-22T03:46:06;16.67;;;7.22;;
73512;SDS011;61754;55.008;73.348;2022-10-22T03:48:32;13.32;;;6.47;;
73512;SDS011;61754;55.008;73.348;2022-10-22T03:50:58;11.40;;;6.65;;
73512;SDS011;61754;55.008;73.348;2022-10-22T03:53:24;14.40;;;6.72;;
73512;SDS011;61754;55.008;73.348;2022-10-22T03:55:50;10.25;;;5.93;;
73512;SDS011;61754;55.008;73.348;2022-10-22T03:58:16;11.75;;;5.68;;
73512;SDS011;61754;55.008;73.348;2022-10-22T04:00:42;10.35;;;6.03;;
73512;SDS011;61754;55.008;73.348;2022-10-22T04:03:10;15.25;;;7.07;;
73512;SDS011;61754;55.008;73.348;2022-10-22T04:05:36;18.40;;;7.53;;
73512;SDS011;61754;55.008;73.348;2022-10-22T04:08:03;14.35;;;6.13;;
73512;SDS011;61754;55.008;73.348;2022-10-22T04:10:29;17.38;;;6.40;;
73512;SDS011;61754;55.008;73.348;2022-10-22T04:12:55;14.10;;;5.63;;
73512;SDS011;61754;55.008;73.348;2022-10-22T04:15:21;17.23;;;6.57;;
73512;SDS011;61754;55.008;73.348;2022-10-22T04:17:47;11.85;;;6.15;;
73512;SDS011;61754;55.008;73.348;2022-10-22T04:20:18;16.35;;;6.65;;
73512;SDS011;61754;55.008;73.348;2022-10-22T04:22:44;13.73;;;6.85;;
73512;SDS011;61754;55.008;73.348;2022-10-22T04:25:20;11.27;;;8.20;;
73512;SDS011;61754;55.008;73.348;2022-10-22T04:27:45;10.63;;;7.15;;
73512;SDS011;61754;55.008;73.348;2022-10-22T04:30:12;14.57;;;8.10;;
73512;SDS011;61754;55.008;73.348;2022-10-22T04:32:38;13.68;;;7.35;;
73512;SDS011;61754;55.008;73.348;2022-10-22T04:35:08;13.48;;;8.43;;
73512;SDS011;61754;55.008;73.348;2022-10-22T04:37:44;9.15;;;5.75;;
73512;SDS011;61754;55.008;73.348;2022-10-22T04:40:16;10.73;;;5.82;;
73512;SDS011;61754;55.008;73.348;2022-10-22T04:42:42;11.15;;;6.50;;
73512;SDS011;61754;55.008;73.348;2022-10-22T04:45:11;7.13;;;5.82;;
73512;SDS011;61754;55.008;73.348;2022-10-22T04:47:37;13.73;;;7.25;;
73512;SDS011;61754;55.008;73.348;2022-10-22T04:50:03;7.80;;;5.55;;
73512;SDS011;61754;55.008;73.348;2022-10-22T04:52:29;17.85;;;5.88;;
73512;SDS011;61754;55.008;73.348;2022-10-22T04:55:01;11.77;;;6.00;;
73512;SDS011;61754;55.008;73.348;2022-10-22T04:57:29;16.52;;;4.88;;
73512;SDS011;61754;55.008;73.348;2022-10-22T05:00:00;9.40;;;6.05;;
73512;SDS011;61754;55.008;73.348;2022-10-22T05:02:31;11.52;;;5.88;;
73512;SDS011;61754;55.008;73.348;2022-10-22T05:05:02;11.68;;;6.00;;
73512;SDS011;61754;55.008;73.348;2022-10-22T05:07:38;13.48;;;6.78;;
73512;SDS011;61754;55.008;73.348;2022-10-22T05:10:04;14.25;;;5.95;;
73512;SDS011;61754;55.008;73.348;2022-10-22T05:12:30;10.23;;;4.50;;
73512;SDS011;61754;55.008;73.348;2022-10-22T05:15:01;5.35;;;4.13;;
73512;SDS011;61754;55.008;73.348;2022-10-22T05:17:27;5.55;;;4.13;;
73512;SDS011;61754;55.008;73.348;2022-10-22T05:19:58;9.57;;;4.28;;
73512;SDS011;61754;55.008;73.348;2022-10-22T05:22:24;13.77;;;4.80;;
73512;SDS011;61754;55.008;73.348;2022-10-22T05:24:50;6.95;;;3.83;;
73512;SDS011;61754;55.008;73.348;2022-10-22T05:27:16;12.25;;;4.07;;
73512;SDS011;61754;55.008;73.348;2022-10-22T05:29:42;5.65;;;3.72;;
73512;SDS011;61754;55.008;73.348;2022-10-22T05:32:08;13.35;;;4.03;;
73512;SDS011;61754;55.008;73.348;2022-10-22T05:34:34;10.38;;;4.55;;
73512;SDS011;61754;55.008;73.348;2022-10-22T05:37:01;12.48;;;4.50;;
73512;SDS011;61754;55.008;73.348;2022-10-22T05:39:27;23.75;;;4.85;;
73512;SDS011;61754;55.008;73.348;2022-10-22T05:41:52;10.00;;;4.95;;
73512;SDS011;61754;55.008;73.348;2022-10-22T05:44:21;10.77;;;4.78;;
73512;SDS011;61754;55.008;73.348;2022-10-22T05:46:47;15.30;;;4.93;;
73512;SDS011;61754;55.008;73.348;2022-10-22T05:49:16;8.40;;;4.72;;
73512;SDS011;61754;55.008;73.348;2022-10-22T05:51:42;8.90;;;3.70;;
73512;SDS011;61754;55.008;73.348;2022-10-22T05:54:10;7.78;;;4.63;;
73512;SDS011;61754;55.008;73.348;2022-10-22T05:56:40;6.85;;;3.97;;
73512;SDS011;61754;55.008;73.348;2022-10-22T05:59:06;5.10;;;4.30;;
73512;SDS011;61754;55.008;73.348;2022-10-22T06:01:32;6.82;;;4.40;;
73512;SDS011;61754;55.008;73.348;2022-10-22T06:04:00;6.85;;;3.80;;
73512;SDS011;61754;55.008;73.348;2022-10-22T06:06:28;18.90;;;4.68;;
73512;SDS011;61754;55.008;73.348;2022-10-22T06:08:55;9.50;;;4.00;;
73512;SDS011;61754;55.008;73.348;2022-10-22T06:11:24;20.50;;;7.60;;
73512;SDS011;61754;55.008;73.348;2022-10-22T06:13:50;24.25;;;6.47;;
73512;SDS011;61754;55.008;73.348;2022-10-22T06:16:27;16.65;;;7.15;;
73512;SDS011;61754;55.008;73.348;2022-10-22T06:18:53;16.13;;;6.03;;
73512;SDS011;61754;55.008;73.348;2022-10-22T06:21:19;14.55;;;5.75;;
73512;SDS011;61754;55.008;73.348;2022-10-22T06:23:45;44.55;;;6.60;;
73512;SDS011;61754;55.008;73.348;2022-10-22T06:26:11;12.57;;;4.75;;
73512;SDS011;61754;55.008;73.348;2022-10-22T06:28:37;7.45;;;4.80;;
73512;SDS011;61754;55.008;73.348;2022-10-22T06:31:04;7.70;;;4.53;;
73512;SDS011;61754;55.008;73.348;2022-10-22T06:33:31;10.48;;;4.90;;
73512;SDS011;61754;55.008;73.348;2022-10-22T06:36:07;20.35;;;5.22;;
73512;SDS011;61754;55.008;73.348;2022-10-22T06:38:43;6.00;;;4.20;;
73512;SDS011;61754;55.008;73.348;2022-10-22T06:41:13;8.48;;;4.32;;
73512;SDS011;61754;55.008;73.348;2022-10-22T06:43:40;10.55;;;4.95;;
73512;SDS011;61754;55.008;73.348;2022-10-22T06:46:06;7.50;;;4.57;;
73512;SDS011;61754;55.008;73.348;2022-10-22T06:48:39;15.45;;;5.20;;
73512;SDS011;61754;55.008;73.348;2022-10-22T06:51:06;10.27;;;4.43;;
73512;SDS011;61754;55.008;73.348;2022-10-22T06:53:32;10.23;;;5.30;;
73512;SDS011;61754;55.008;73.348;2022-10-22T06:56:03;26.23;;;5.50;;
73512;SDS011;61754;55.008;73.348;2022-10-22T06:58:29;8.18;;;4.63;;
73512;SDS011;61754;55.008;73.348;2022-10-22T07:01:08;8.90;;;4.45;;
73512;SDS011;61754;55.008;73.348;2022-10-22T07:03:35;7.22;;;4.57;;
73512;SDS011;61754;55.008;73.348;2022-10-22T07:06:01;19.02;;;4.80;;
73512;SDS011;61754;55.008;73.348;2022-10-22T07:08:28;7.38;;;4.57;;
73512;SDS011;61754;55.008;73.348;2022-10-22T07:10:54;8.30;;;4.78;;
73512;SDS011;61754;55.008;73.348;2022-10-22T07:13:20;20.58;;;5.38;;
73512;SDS011;61754;55.008;73.348;2022-10-22T07:15:52;11.25;;;5.28;;
73512;SDS011;61754;55.008;73.348;2022-10-22T07:18:19;8.65;;;4.85;;
73512;SDS011;61754;55.008;73.348;2022-10-22T07:20:46;8.73;;;4.60;;
73512;SDS011;61754;55.008;73.348;2022-10-22T07:23:18;11.95;;;4.53;;
73512;SDS011;61754;55.008;73.348;2022-10-22T07:25:44;16.15;;;4.90;;
73512;SDS011;61754;55.008;73.348;2022-10-22T07:28:20;13.45;;;5.47;;
73512;SDS011;61754;55.008;73.348;2022-10-22T07:30:46;8.13;;;4.03;;
73512;SDS011;61754;55.008;73.348;2022-10-22T07:33:12;13.25;;;4.90;;
73512;SDS011;61754;55.008;73.348;2022-10-22T07:35:38;16.15;;;5.45;;
73512;SDS011;61754;55.008;73.348;2022-10-22T07:38:05;8.50;;;3.88;;
73512;SDS011;61754;55.008;73.348;2022-10-22T07:40:32;8.05;;;4.75;;
73512;SDS011;61754;55.008;73.348;2022-10-22T07:42:58;10.15;;;4.47;;
73512;SDS011;61754;55.008;73.348;2022-10-22T07:45:24;7.03;;;3.70;;
73512;SDS011;61754;55.008;73.348;2022-10-22T07:47:50;5.55;;;4.15;;
73512;SDS011;61754;55.008;73.348;2022-10-22T07:50:16;6.72;;;3.25;;
73512;SDS011;61754;55.008;73.348;2022-10-22T07:52:43;15.02;;;4.78;;
73512;SDS011;61754;55.008;73.348;2022-10-22T07:55:14;7.90;;;3.42;;
73512;SDS011;61754;55.008;73.348;2022-10-22T07:57:40;4.63;;;3.47;;
73512;SDS011;61754;55.008;73.348;2022-10-22T08:00:06;5.68;;;3.78;;
73512;SDS011;61754;55.008;73.348;2022-10-22T08:02:37;5.18;;;3.90;;
73512;SDS011;61754;55.008;73.348;2022-10-22T08:05:06;6.15;;;3.35;;
73512;SDS011;61754;55.008;73.348;2022-10-22T08:07:37;10.63;;;3.55;;
73512;SDS011;61754;55.008;73.348;2022-10-22T08:10:04;4.25;;;3.00;;
73512;SDS011;61754;55.008;73.348;2022-10-22T08:12:30;8.95;;;3.40;;
73512;SDS011;61754;55.008;73.348;2022-10-22T08:14:56;14.95;;;6.50;;
73512;SDS011;61754;55.008;73.348;2022-10-22T08:17:32;11.45;;;3.70;;
73512;SDS011;61754;55.008;73.348;2022-10-22T08:19:58;7.95;;;4.20;;
73512;SDS011;61754;55.008;73.348;2022-10-22T08:22:24;5.25;;;3.42;;
73512;SDS011;61754;55.008;73.348;2022-10-22T08:24:50;3.15;;;2.70;;
73512;SDS011;61754;55.008;73.348;2022-10-22T08:27:16;5.95;;;3.58;;
73512;SDS011;61754;55.008;73.348;2022-10-22T08:29:42;9.07;;;4.25;;
73512;SDS011;61754;55.008;73.348;2022-10-22T08:32:08;9.82;;;3.67;;
73512;SDS011;61754;55.008;73.348;2022-10-22T08:34:33;8.68;;;3.63;;
73512;SDS011;61754;55.008;73.348;2022-10-22T08:36:59;9.40;;;4.78;;
73512;SDS011;61754;55.008;73.348;2022-10-22T08:39:26;9.90;;;4.07;;
73512;SDS011;61754;55.008;73.348;2022-10-22T08:47:01;12.10;;;5.15;;
73512;SDS011;61754;55.008;73.348;2022-10-22T08:49:32;14.07;;;5.30;;
73512;SDS011;61754;55.008;73.348;2022-10-22T08:51:59;11.10;;;4.68;;
73512;SDS011;61754;55.008;73.348;2022-10-22T09:02:32;15.90;;;4.67;;
73512;SDS011;61754;55.008;73.348;2022-10-22T09:05:24;9.95;;;6.78;;
73512;SDS011;61754;55.008;73.348;2022-10-22T09:07:56;12.50;;;6.07;;
73512;SDS011;61754;55.008;73.348;2022-10-22T09:10:31;9.60;;;6.10;;
73512;SDS011;61754;55.008;73.348;2022-10-22T09:12:57;11.23;;;6.47;;
73512;SDS011;61754;55.008;73.348;2022-10-22T09:15:28;16.77;;;6.13;;
73512;SDS011;61754;55.008;73.348;2022-10-22T09:17:58;16.80;;;7.60;;
73512;SDS011;61754;55.008;73.348;2022-10-22T09:20:31;17.48;;;7.13;;
73512;SDS011;61754;55.008;73.348;2022-10-22T09:25:51;12.43;;;8.48;;
73512;SDS011;61754;55.008;73.348;2022-10-22T09:28:18;15.43;;;7.90;;
73512;SDS011;61754;55.008;73.348;2022-10-22T09:30:44;11.57;;;7.70;;
73512;SDS011;61754;55.008;73.348;2022-10-22T09:35:43;11.38;;;6.57;;
73512;SDS011;61754;55.008;73.348;2022-10-22T09:38:10;12.57;;;6.32;;
73512;SDS011;61754;55.008;73.348;2022-10-22T09:40:51;16.05;;;6.68;;
73512;SDS011;61754;55.008;73.348;2022-10-22T09:43:17;12.95;;;7.25;;
73512;SDS011;61754;55.008;73.348;2022-10-22T09:45:55;16.77;;;8.95;;
73512;SDS011;61754;55.008;73.348;2022-10-22T09:51:04;14.05;;;7.22;;
73512;SDS011;61754;55.008;73.348;2022-10-22T09:53:35;12.83;;;7.90;;
73512;SDS011;61754;55.008;73.348;2022-10-22T09:56:06;12.90;;;8.50;;
73512;SDS011;61754;55.008;73.348;2022-10-22T09:58:40;18.48;;;8.57;;
73512;SDS011;61754;55.008;73.348;2022-10-22T10:01:18;18.27;;;10.20;;
73512;SDS011;61754;55.008;73.348;2022-10-22T10:03:44;15.75;;;7.57;;
73512;SDS011;61754;55.008;73.348;2022-10-22T10:06:12;9.85;;;6.65;;
73512;SDS011;61754;55.008;73.348;2022-10-22T10:08:42;9.55;;;6.70;;
73512;SDS011;61754;55.008;73.348;2022-10-22T10:13:56;11.75;;;8.80;;
73512;SDS011;61754;55.008;73.348;2022-10-22T10:16:39;12.85;;;8.48;;
73512;SDS011;61754;55.008;73.348;2022-10-22T10:21:56;14.02;;;9.23;;
73512;SDS011;61754;55.008;73.348;2022-10-22T10:29:20;19.05;;;12.52;;
73512;SDS011;61754;55.008;73.348;2022-10-22T10:47:06;22.10;;;15.55;;
73512;SDS011;61754;55.008;73.348;2022-10-22T10:49:34;18.20;;;13.17;;
73512;SDS011;61754;55.008;73.348;2022-10-22T10:54:49;17.67;;;13.43;;
73512;SDS011;61754;55.008;73.348;2022-10-22T10:57:43;17.13;;;12.70;;
73512;SDS011;61754;55.008;73.348;2022-10-22T11:00:21;17.63;;;12.90;;
73512;SDS011;61754;55.008;73.348;2022-10-22T11:05:43;27.60;;;18.42;;
73512;SDS011;61754;55.008;73.348;2022-10-22T11:08:12;22.63;;;14.48;;
73512;SDS011;61754;55.008;73.348;2022-10-22T11:10:51;24.30;;;15.73;;
73512;SDS011;61754;55.008;73.348;2022-10-22T11:13:25;18.10;;;13.40;;
73512;SDS011;61754;55.008;73.348;2022-10-22T11:16:04;20.02;;;14.88;;
73512;SDS011;61754;55.008;73.348;2022-10-22T11:18:36;20.42;;;14.60;;
73512;SDS011;61754;55.008;73.348;2022-10-22T11:21:17;24.02;;;16.67;;
73512;SDS011;61754;55.008;73.348;2022-10-22T11:29:14;28.55;;;18.40;;
73512;SDS011;61754;55.008;73.348;2022-10-22T11:31:42;41.65;;;26.42;;
73512;SDS011;61754;55.008;73.348;2022-10-22T11:34:17;46.67;;;29.20;;
73512;SDS011;61754;55.008;73.348;2022-10-22T11:36:44;42.58;;;28.00;;
73512;SDS011;61754;55.008;73.348;2022-10-22T11:41:57;45.00;;;30.70;;
73512;SDS011;61754;55.008;73.348;2022-10-22T11:44:23;50.15;;;31.73;;
73512;SDS011;61754;55.008;73.348;2022-10-22T11:49:18;40.20;;;27.73;;
73512;SDS011;61754;55.008;73.348;2022-10-22T11:51:44;39.17;;;26.95;;
73512;SDS011;61754;55.008;73.348;2022-10-22T11:57:15;44.75;;;29.75;;
73512;SDS011;61754;55.008;73.348;2022-10-22T12:02:28;36.35;;;25.77;;
73512;SDS011;61754;55.008;73.348;2022-10-22T12:05:00;46.33;;;31.33;;
73512;SDS011;61754;55.008;73.348;2022-10-22T12:07:51;48.30;;;32.13;;
73512;SDS011;61754;55.008;73.348;2022-10-22T12:10:19;46.35;;;31.63;;
73512;SDS011;61754;55.008;73.348;2022-10-22T12:12:56;52.92;;;32.83;;
73512;SDS011;61754;55.008;73.348;2022-10-22T12:15:23;47.08;;;30.27;;
73512;SDS011;61754;55.008;73.348;2022-10-22T12:18:01;49.47;;;29.35;;
73512;SDS011;61754;55.008;73.348;2022-10-22T12:20:28;49.58;;;30.25;;
73512;SDS011;61754;55.008;73.348;2022-10-22T12:23:00;46.60;;;29.33;;
73512;SDS011;61754;55.008;73.348;2022-10-22T12:25:29;43.65;;;28.40;;
73512;SDS011;61754;55.008;73.348;2022-10-22T12:27:56;45.58;;;31.42;;
73512;SDS011;61754;55.008;73.348;2022-10-22T12:30:24;48.63;;;29.13;;
73512;SDS011;61754;55.008;73.348;2022-10-22T12:32:54;40.63;;;26.60;;
73512;SDS011;61754;55.008;73.348;2022-10-22T12:35:22;46.58;;;28.27;;
73512;SDS011;61754;55.008;73.348;2022-10-22T12:37:49;40.40;;;26.20;;
73512;SDS011;61754;55.008;73.348;2022-10-22T12:40:24;39.40;;;25.80;;
73512;SDS011;61754;55.008;73.348;2022-10-22T12:42:57;45.20;;;28.92;;
73512;SDS011;61754;55.008;73.348;2022-10-22T12:45:29;49.60;;;29.97;;
73512;SDS011;61754;55.008;73.348;2022-10-22T12:48:05;52.58;;;34.15;;
73512;SDS011;61754;55.008;73.348;2022-10-22T12:50:43;52.65;;;33.30;;
73512;SDS011;61754;55.008;73.348;2022-10-22T12:53:14;49.58;;;31.08;;
73512;SDS011;61754;55.008;73.348;2022-10-22T12:55:41;46.50;;;28.63;;
73512;SDS011;61754;55.008;73.348;2022-10-22T12:58:07;44.53;;;28.85;;
73512;SDS011;61754;55.008;73.348;2022-10-22T13:00:34;44.42;;;29.02;;
73512;SDS011;61754;55.008;73.348;2022-10-22T13:03:15;48.33;;;29.13;;
73512;SDS011;61754;55.008;73.348;2022-10-22T13:05:50;42.13;;;28.05;;
73512;SDS011;61754;55.008;73.348;2022-10-22T13:08:16;44.40;;;28.52;;
73512;SDS011;61754;55.008;73.348;2022-10-22T13:10:49;46.97;;;30.67;;
73512;SDS011;61754;55.008;73.348;2022-10-22T13:13:33;50.10;;;32.05;;
73512;SDS011;61754;55.008;73.348;2022-10-22T13:16:15;51.70;;;32.85;;
73512;SDS011;61754;55.008;73.348;2022-10-22T13:18:52;58.22;;;34.67;;
73512;SDS011;61754;55.008;73.348;2022-10-22T13:21:22;47.42;;;29.20;;
73512;SDS011;61754;55.008;73.348;2022-10-22T13:23:53;46.72;;;27.95;;
73512;SDS011;61754;55.008;73.348;2022-10-22T13:26:19;47.88;;;29.67;;
73512;SDS011;61754;55.008;73.348;2022-10-22T13:28:49;48.83;;;28.55;;
73512;SDS011;61754;55.008;73.348;2022-10-22T13:31:20;42.95;;;28.40;;
73512;SDS011;61754;55.008;73.348;2022-10-22T13:33:50;37.10;;;25.10;;
73512;SDS011;61754;55.008;73.348;2022-10-22T13:36:17;41.78;;;25.95;;
73512;SDS011;61754;55.008;73.348;2022-10-22T13:38:43;40.05;;;24.38;;
73512;SDS011;61754;55.008;73.348;2022-10-22T13:41:23;41.15;;;26.50;;
73512;SDS011;61754;55.008;73.348;2022-10-22T13:43:50;49.67;;;29.58;;
73512;SDS011;61754;55.008;73.348;2022-10-22T13:46:21;63.45;;;35.03;;
73512;SDS011;61754;55.008;73.348;2022-10-22T13:48:47;51.78;;;30.60;;
73512;SDS011;61754;55.008;73.348;2022-10-22T13:51:31;46.60;;;28.92;;
73512;SDS011;61754;55.008;73.348;2022-10-22T13:53:59;37.10;;;23.83;;
73512;SDS011;61754;55.008;73.348;2022-10-22T13:56:26;37.75;;;24.23;;
73512;SDS011;61754;55.008;73.348;2022-10-22T13:58:52;33.30;;;22.70;;
73512;SDS011;61754;55.008;73.348;2022-10-22T14:01:22;38.13;;;24.88;;
73512;SDS011;61754;55.008;73.348;2022-10-22T14:03:59;39.97;;;26.20;;
73512;SDS011;61754;55.008;73.348;2022-10-22T14:06:28;38.42;;;25.48;;
73512;SDS011;61754;55.008;73.348;2022-10-22T14:09:03;39.78;;;26.38;;
73512;SDS011;61754;55.008;73.348;2022-10-22T14:11:29;38.80;;;25.15;;
73512;SDS011;61754;55.008;73.348;2022-10-22T14:13:59;36.88;;;25.30;;
73512;SDS011;61754;55.008;73.348;2022-10-22T14:16:28;43.15;;;27.63;;
73512;SDS011;61754;55.008;73.348;2022-10-22T14:18:56;42.28;;;26.52;;
73512;SDS011;61754;55.008;73.348;2022-10-22T14:21:22;42.45;;;27.33;;
73512;SDS011;61754;55.008;73.348;2022-10-22T14:23:59;44.10;;;28.23;;
73512;SDS011;61754;55.008;73.348;2022-10-22T14:26:35;42.15;;;28.60;;
73512;SDS011;61754;55.008;73.348;2022-10-22T14:29:01;40.58;;;27.40;;
73512;SDS011;61754;55.008;73.348;2022-10-22T14:31:27;39.72;;;27.88;;
73512;SDS011;61754;55.008;73.348;2022-10-22T14:33:53;44.00;;;28.98;;
73512;SDS011;61754;55.008;73.348;2022-10-22T14:36:19;41.53;;;28.23;;
73512;SDS011;61754;55.008;73.348;2022-10-22T14:38:51;41.33;;;28.35;;
73512;SDS011;61754;55.008;73.348;2022-10-22T14:41:18;47.13;;;28.88;;
73512;SDS011;61754;55.008;73.348;2022-10-22T14:43:54;45.95;;;29.63;;
73512;SDS011;61754;55.008;73.348;2022-10-22T14:46:20;46.40;;;29.65;;
73512;SDS011;61754;55.008;73.348;2022-10-22T14:48:51;51.10;;;31.10;;
73512;SDS011;61754;55.008;73.348;2022-10-22T14:51:18;53.90;;;32.28;;
73512;SDS011;61754;55.008;73.348;2022-10-22T14:53:44;51.03;;;32.03;;
73512;SDS011;61754;55.008;73.348;2022-10-22T14:56:11;43.60;;;29.35;;
73512;SDS011;61754;55.008;73.348;2022-10-22T14:58:37;48.15;;;29.55;;
73512;SDS011;61754;55.008;73.348;2022-10-22T15:01:13;50.67;;;30.92;;
73512;SDS011;61754;55.008;73.348;2022-10-22T15:03:39;45.83;;;29.15;;
73512;SDS011;61754;55.008;73.348;2022-10-22T15:06:15;48.67;;;28.13;;
73512;SDS011;61754;55.008;73.348;2022-10-22T15:08:41;42.00;;;26.40;;
73512;SDS011;61754;55.008;73.348;2022-10-22T15:11:09;43.22;;;27.80;;
73512;SDS011;61754;55.008;73.348;2022-10-22T15:13:35;49.72;;;29.63;;
73512;SDS011;61754;55.008;73.348;2022-10-22T15:16:07;46.47;;;29.17;;
73512;SDS011;61754;55.008;73.348;2022-10-22T15:18:34;45.05;;;28.98;;
73512;SDS011;61754;55.008;73.348;2022-10-22T15:21:02;43.47;;;27.02;;
73512;SDS011;61754;55.008;73.348;2022-10-22T15:23:28;44.65;;;27.58;;
73512;SDS011;61754;55.008;73.348;2022-10-22T15:25:54;45.65;;;26.35;;
73512;SDS011;61754;55.008;73.348;2022-10-22T15:28:20;41.03;;;27.77;;
73512;SDS011;61754;55.008;73.348;2022-10-22T15:30:56;47.00;;;29.35;;
73512;SDS011;61754;55.008;73.348;2022-10-22T15:33:23;40.03;;;26.90;;
73512;SDS011;61754;55.008;73.348;2022-10-22T15:36:07;42.67;;;27.60;;
73512;SDS011;61754;55.008;73.348;2022-10-22T15:38:33;41.30;;;27.08;;
73512;SDS011;61754;55.008;73.348;2022-10-22T15:41:00;42.95;;;26.35;;
73512;SDS011;61754;55.008;73.348;2022-10-22T15:43:26;41.92;;;27.48;;
73512;SDS011;61754;55.008;73.348;2022-10-22T15:46:23;40.25;;;25.95;;
73512;SDS011;61754;55.008;73.348;2022-10-22T15:48:51;43.83;;;27.77;;
73512;SDS011;61754;55.008;73.348;2022-10-22T15:51:17;44.35;;;29.35;;
73512;SDS011;61754;55.008;73.348;2022-10-22T15:53:45;45.38;;;29.38;;
73512;SDS011;61754;55.008;73.348;2022-10-22T15:56:17;42.03;;;28.67;;
73512;SDS011;61754;55.008;73.348;2022-10-22T15:58:45;45.25;;;28.38;;
73512;SDS011;61754;55.008;73.348;2022-10-22T16:01:12;44.20;;;28.15;;
73512;SDS011;61754;55.008;73.348;2022-10-22T16:03:38;41.30;;;27.15;;
73512;SDS011;61754;55.008;73.348;2022-10-22T16:06:05;40.00;;;25.83;;